Time;durP1;ratioP1;P1;durP2;ratioP2;P2;SDS_P1;SDS_P2;PMS_P1;PMS_P2;Temp;Humidity;BMP_temperature;BMP_pressure;BME280_temperature;BME280_humidity;BME280_pressure;Samples;Min_cycle;Max_cycle;Signal;HPM_P1;HPM_P2
2024/01/15 00:00:18;;;;;;;84.53;33.55;;;;;;;-2.46;84.39;99273.88;4953835;29;20058;-32
2024/01/15 00:02:43;;;;;;;92.15;34.05;;;;;;;-2.54;81.62;99274.53;4953858;29;20062;-32
2024/01/15 00:05:09;;;;;;;80.38;31.88;;;;;;;-2.78;82.82;99267.88;4953821;29;20548;-32
2024/01/15 00:07:35;;;;;;;89.38;33.22;;;;;;;-3.02;82.63;99268.13;4953829;29;20672;-33
2024/01/15 00:10:01;;;;;;;93.28;33.25;;;;;;;-2.96;83.68;99272.00;4953659;29;20038;-32
2024/01/15 00:12:26;;;;;;;99.63;35.58;;;;;;;-2.87;83.02;99257.41;4954027;29;20031;-31
2024/01/15 00:14:52;;;;;;;96.00;34.10;;;;;;;-2.89;84.03;99254.06;4953777;29;20476;-32
2024/01/15 00:17:17;;;;;;;92.38;34.50;;;;;;;-2.95;83.75;99258.06;4953719;29;20031;-32
2024/01/15 00:19:43;;;;;;;106.07;37.47;;;;;;;-2.98;85.65;99268.72;4954198;29;20031;-32
2024/01/15 00:22:08;;;;;;;102.97;38.38;;;;;;;-2.84;83.76;99251.91;4954147;29;20027;-31
2024/01/15 00:24:34;;;;;;;111.70;39.28;;;;;;;-2.77;84.05;99266.09;4954213;29;20023;-32
2024/01/15 00:26:59;;;;;;;99.90;38.17;;;;;;;-3.04;84.18;99231.00;4954331;29;20038;-30
2024/01/15 00:29:24;;;;;;;110.72;37.20;;;;;;;-2.99;84.40;99260.09;4954233;29;20027;-31
2024/01/15 00:31:50;;;;;;;96.88;34.58;;;;;;;-3.04;82.08;99262.25;4954246;29;20047;-32
2024/01/15 00:34:15;;;;;;;102.80;33.92;;;;;;;-3.12;84.11;99263.81;4954106;29;20409;-32
2024/01/15 00:36:41;;;;;;;106.03;34.83;;;;;;;-3.15;84.02;99262.31;4953993;29;20086;-32
2024/01/15 00:39:06;;;;;;;99.22;35.58;;;;;;;-3.06;82.78;99255.53;4954071;29;20114;-31
2024/01/15 00:41:32;;;;;;;106.88;38.28;;;;;;;-2.96;81.30;99243.38;4953903;29;20110;-32
2024/01/15 00:43:57;;;;;;;112.35;38.20;;;;;;;-2.55;80.19;99254.69;4953803;29;20452;-32
2024/01/15 00:46:22;;;;;;;99.30;36.40;;;;;;;-2.87;82.06;99247.00;4953018;28;20023;-32
2024/01/15 00:48:48;;;;;;;108.93;35.70;;;;;;;-2.77;80.79;99248.66;4953824;29;20039;-32
2024/01/15 00:51:13;;;;;;;127.55;39.63;;;;;;;-2.76;80.89;99247.72;4953573;29;20038;-33
2024/01/15 00:53:40;;;;;;;112.78;37.13;;;;;;;-2.76;81.35;99244.28;4953283;29;20105;-33
2024/01/15 00:56:05;;;;;;;112.05;38.53;;;;;;;-2.69;81.76;99240.19;4953471;29;20428;-31
2024/01/15 00:58:31;;;;;;;104.57;36.38;;;;;;;-2.70;80.43;99232.50;4953425;29;20041;-33
2024/01/15 01:00:56;;;;;;;97.32;37.97;;;;;;;-2.76;82.62;99231.25;4953267;29;20031;-33
2024/01/15 01:03:21;;;;;;;106.32;39.22;;;;;;;-2.38;79.79;99235.81;4953457;29;20041;-33
2024/01/15 01:05:50;;;;;;;107.55;36.90;;;;;;;-2.74;81.17;99234.56;4953304;29;20030;-32
2024/01/15 01:08:15;;;;;;;97.40;35.53;;;;;;;-3.05;80.82;99231.94;4953355;29;20028;-32
2024/01/15 01:10:42;;;;;;;112.93;37.55;;;;;;;-2.70;78.70;99235.97;4953203;29;20024;-32
2024/01/15 01:13:08;;;;;;;103.72;36.25;;;;;;;-2.72;79.10;99237.03;4953379;29;20428;-33
2024/01/15 01:15:33;;;;;;;87.43;34.33;;;;;;;-2.94;81.40;99220.63;4953425;29;20476;-30
2024/01/15 01:17:59;;;;;;;99.63;34.45;;;;;;;-2.38;77.89;99224.53;4953126;29;20031;-32
2024/01/15 01:20:24;;;;;;;105.35;35.63;;;;;;;-2.27;77.91;99224.41;4952921;29;20472;-32
2024/01/15 01:22:50;;;;;;;94.95;34.42;;;;;;;-2.52;77.30;99228.34;4953149;29;20031;-32
2024/01/15 01:25:15;;;;;;;92.93;34.13;;;;;;;-2.14;75.53;99232.00;4952977;29;20031;-33
2024/01/15 01:27:41;;;;;;;100.10;34.30;;;;;;;-2.01;73.85;99226.53;4953114;29;20038;-32
2024/01/15 01:30:06;;;;;;;91.07;34.17;;;;;;;-1.95;74.52;99227.78;4953359;29;20094;-32
2024/01/15 01:32:32;;;;;;;92.72;34.15;;;;;;;-2.06;75.26;99237.34;4952927;29;20055;-32
2024/01/15 01:34:57;;;;;;;96.65;33.25;;;;;;;-2.28;75.72;99235.00;4952784;29;20038;-33
2024/01/15 01:37:23;;;;;;;85.88;32.60;;;;;;;-2.42;76.92;99231.81;4952833;29;20031;-32
2024/01/15 01:39:48;;;;;;;84.00;32.60;;;;;;;-2.63;77.71;99226.66;4952985;29;20039;-32
2024/01/15 01:42:13;;;;;;;78.18;29.23;;;;;;;-2.86;78.35;99227.78;4952835;29;20038;-33
2024/01/15 01:44:39;;;;;;;72.53;29.52;;;;;;;-2.92;79.10;99221.31;4952962;29;20455;-33
2024/01/15 01:47:05;;;;;;;73.28;27.77;;;;;;;-2.85;78.87;99226.84;4948795;29;20027;-33
2024/01/15 01:49:31;;;;;;;69.55;26.90;;;;;;;-2.77;78.30;99217.41;4952941;29;20031;-33
2024/01/15 01:51:59;;;;;;;69.50;25.05;;;;;;;-2.81;78.23;99216.03;4952974;29;20075;-33
2024/01/15 01:54:28;;;;;;;67.93;27.13;;;;;;;-2.99;79.41;99209.78;4952683;29;20046;-33
2024/01/15 01:56:55;;;;;;;53.10;22.20;;;;;;;-2.61;76.39;99205.66;4952692;29;20028;-33
2024/01/15 01:59:23;;;;;;;49.75;20.05;;;;;;;-2.78;76.91;99205.34;4952934;29;20427;-33
2024/01/15 02:01:49;;;;;;;52.55;20.83;;;;;;;-2.44;74.62;99206.81;4952142;29;20038;-33
2024/01/15 02:04:15;;;;;;;44.50;19.27;;;;;;;-2.93;74.15;99211.88;4952078;29;20063;-31
2024/01/15 02:06:40;;;;;;;40.50;18.33;;;;;;;-3.13;77.86;99210.94;4952022;29;20121;-32
2024/01/15 02:09:07;;;;;;;43.00;18.00;;;;;;;-3.20;76.58;99209.78;4952408;29;20389;-32
2024/01/15 02:11:33;;;;;;;46.50;18.67;;;;;;;-3.01;77.44;99209.06;4952592;29;20031;-32
2024/01/15 02:13:58;;;;;;;40.22;16.70;;;;;;;-3.23;76.94;99218.69;4952132;29;20034;-32
2024/01/15 02:16:24;;;;;;;42.78;17.60;;;;;;;-3.16;75.24;99206.81;4934586;29;20377;-32
2024/01/15 02:18:49;;;;;;;40.67;17.00;;;;;;;-2.99;76.47;99207.16;4952006;29;20134;-32
2024/01/15 02:21:15;;;;;;;39.78;16.83;;;;;;;-2.85;76.22;99204.22;4952054;29;20031;-31
2024/01/15 02:23:41;;;;;;;42.45;18.15;;;;;;;-2.92;76.88;99191.84;4940489;29;20042;-31
2024/01/15 02:26:08;;;;;;;45.05;17.88;;;;;;;-2.28;77.72;99207.16;4933316;29;20028;-32
2024/01/15 02:28:34;;;;;;;42.92;18.98;;;;;;;-1.54;76.05;99200.59;4933270;29;20028;-32
2024/01/15 02:30:59;;;;;;;44.47;18.63;;;;;;;-1.30;75.77;99212.38;4933239;29;20102;-32
2024/01/15 02:33:25;;;;;;;49.25;18.40;;;;;;;-1.57;81.23;99200.88;4933166;29;20038;-32
2024/01/15 02:35:50;;;;;;;43.88;18.85;;;;;;;-1.88;78.06;99187.16;4932995;29;20405;-32
2024/01/15 02:38:16;;;;;;;43.17;17.17;;;;;;;-1.96;77.66;99193.06;4939857;29;20055;-33
2024/01/15 02:40:43;;;;;;;39.25;17.38;;;;;;;-2.58;78.05;99197.59;4952318;29;20039;-32
2024/01/15 02:43:09;;;;;;;43.45;17.75;;;;;;;-2.76;79.43;99207.81;4952375;29;20054;-32
2024/01/15 02:45:35;;;;;;;43.15;18.25;;;;;;;-2.99;81.19;99208.00;4952240;29;20491;-32
2024/01/15 02:48:00;;;;;;;43.55;18.60;;;;;;;-2.90;80.54;99213.38;4952209;29;20042;-32
2024/01/15 02:50:26;;;;;;;49.22;19.80;;;;;;;-2.91;80.10;99209.13;4952264;29;20031;-32
2024/01/15 02:52:51;;;;;;;62.63;22.20;;;;;;;-2.96;80.56;99191.28;4952092;29;20047;-33
2024/01/15 02:55:17;;;;;;;46.85;19.83;;;;;;;-2.98;79.87;99201.00;4952244;29;20027;-32
2024/01/15 02:57:42;;;;;;;48.70;20.23;;;;;;;-3.26;81.20;99197.31;4952190;29;20031;-32
2024/01/15 03:00:08;;;;;;;47.80;19.83;;;;;;;-3.37;80.72;99178.22;4952055;29;20035;-32
2024/01/15 03:02:39;;;;;;;43.58;20.35;;;;;;;-3.12;80.57;99191.78;4952042;29;20035;-32
2024/01/15 03:05:04;;;;;;;47.00;19.00;;;;;;;-3.20;80.23;99188.97;4952048;29;20081;-32
2024/01/15 03:07:29;;;;;;;49.42;18.40;;;;;;;-3.30;82.52;99183.72;4952039;28;20126;-32
2024/01/15 03:09:55;;;;;;;43.72;18.25;;;;;;;-3.39;82.27;99179.28;4955218;29;20099;-32
2024/01/15 03:12:20;;;;;;;45.55;18.63;;;;;;;-3.33;83.08;99176.19;4955583;29;20050;-32
2024/01/15 03:14:46;;;;;;;53.65;19.98;;;;;;;-3.40;82.08;99173.25;4955245;29;20039;-32
2024/01/15 03:17:12;;;;;;;48.95;19.77;;;;;;;-3.46;81.26;99188.56;4955280;29;20067;-32
2024/01/15 03:19:37;;;;;;;49.25;19.65;;;;;;;-3.55;82.74;99198.75;4945357;29;20038;-32
2024/01/15 03:22:03;;;;;;;42.95;19.52;;;;;;;-3.31;83.26;99194.25;4952291;29;20139;-31
2024/01/15 03:24:29;;;;;;;53.08;20.98;;;;;;;-3.40;81.47;99178.47;4953391;29;20020;-32
2024/01/15 03:26:54;;;;;;;48.45;20.52;;;;;;;-3.66;82.90;99188.41;4955217;29;20114;-32
2024/01/15 03:29:20;;;;;;;52.58;21.63;;;;;;;-3.51;84.25;99183.72;4954679;29;20037;-32
2024/01/15 03:31:45;;;;;;;55.78;21.88;;;;;;;-3.57;82.21;99179.84;4954321;29;20039;-32
2024/01/15 03:34:11;;;;;;;51.58;20.17;;;;;;;-3.61;81.39;99169.84;4954432;29;20414;-32
2024/01/15 03:36:36;;;;;;;55.10;20.90;;;;;;;-3.61;82.28;99177.66;4954387;29;20046;-32
2024/01/15 03:39:02;;;;;;;54.95;21.75;;;;;;;-3.60;82.76;99177.53;4954561;29;20034;-32
2024/01/15 03:41:28;;;;;;;55.17;21.80;;;;;;;-3.59;84.19;99163.56;4954629;29;20023;-32
2024/01/15 03:43:53;;;;;;;50.72;21.80;;;;;;;-3.45;83.60;99182.41;4954722;29;20062;-32
2024/01/15 03:46:18;;;;;;;48.33;20.83;;;;;;;-3.50;83.06;99181.94;4954567;29;20157;-32
2024/01/15 03:48:43;;;;;;;48.80;19.75;;;;;;;-3.63;84.92;99182.97;4954764;29;20027;-32
2024/01/15 03:51:09;;;;;;;48.60;19.95;;;;;;;-3.50;85.85;99193.19;4955045;29;20050;-31
2024/01/15 03:53:34;;;;;;;51.35;20.80;;;;;;;-3.58;84.63;99200.78;4954311;29;20050;-31
2024/01/15 03:55:59;;;;;;;48.47;20.65;;;;;;;-3.71;85.92;99198.38;4944370;29;20480;-32
2024/01/15 03:58:25;;;;;;;47.65;19.52;;;;;;;-3.74;84.45;99196.03;4954642;29;20058;-32
2024/01/15 04:00:50;;;;;;;53.22;21.27;;;;;;;-3.63;84.22;99190.78;4954608;29;20038;-32
2024/01/15 04:03:16;;;;;;;51.70;20.33;;;;;;;-3.56;84.24;99193.69;4954327;29;20035;-30
2024/01/15 04:05:41;;;;;;;50.25;20.42;;;;;;;-3.29;82.71;99190.59;4937238;29;20392;-42
2024/01/15 04:08:06;;;;;;;50.08;19.73;;;;;;;-3.32;83.30;99182.22;4954188;29;20031;-32
2024/01/15 04:10:32;;;;;;;52.50;20.10;;;;;;;-3.56;82.26;99167.66;4954399;29;20078;-32
2024/01/15 04:12:59;;;;;;;42.38;19.58;;;;;;;-3.56;83.76;99173.72;4954413;29;20027;-31
2024/01/15 04:15:25;;;;;;;49.03;20.30;;;;;;;-3.31;82.80;99176.88;4954086;29;20042;-32
2024/01/15 04:17:50;;;;;;;52.33;20.42;;;;;;;-3.34;86.34;99174.53;4953204;29;20066;-32
2024/01/15 04:20:15;;;;;;;52.30;19.50;;;;;;;-3.58;81.90;99186.03;4935140;29;20040;-32
2024/01/15 04:22:41;;;;;;;47.08;19.90;;;;;;;-3.59;80.71;99184.38;4953398;29;20057;-30
2024/01/15 04:25:06;;;;;;;56.00;22.17;;;;;;;-3.21;82.67;99182.94;4953735;29;20027;-33
2024/01/15 04:27:32;;;;;;;47.42;19.67;;;;;;;-3.28;81.57;99176.59;4954083;29;20404;-32
2024/01/15 04:29:57;;;;;;;51.50;20.77;;;;;;;-2.82;82.82;99179.69;4954065;29;20372;-32
2024/01/15 04:32:22;;;;;;;63.33;21.27;;;;;;;-2.18;79.31;99162.84;4952397;29;20059;-32
2024/01/15 04:34:48;;;;;;;50.75;20.88;;;;;;;-2.72;82.70;99158.88;4951396;29;20039;-34
2024/01/15 04:37:14;;;;;;;49.65;19.98;;;;;;;-3.04;82.46;99162.50;4951247;29;20054;-33
2024/01/15 04:39:39;;;;;;;46.35;18.95;;;;;;;-3.38;83.15;99145.31;4951331;29;20086;-32
2024/01/15 04:42:05;;;;;;;46.05;19.15;;;;;;;-3.35;84.58;99150.28;4951373;29;20046;-32
2024/01/15 04:44:30;;;;;;;40.75;17.30;;;;;;;-3.28;83.86;99147.16;4952298;29;20039;-32
2024/01/15 04:46:56;;;;;;;44.25;16.83;;;;;;;-3.35;84.69;99152.03;4952721;29;20035;-34
2024/01/15 04:49:21;;;;;;;39.30;17.40;;;;;;;-3.40;85.47;99157.66;4953341;29;20031;-32
2024/01/15 04:51:46;;;;;;;40.22;17.35;;;;;;;-3.10;84.24;99153.41;4953133;29;20027;-31
2024/01/15 04:54:12;;;;;;;38.70;16.25;;;;;;;-3.63;85.77;99151.75;4952893;29;20037;-32
2024/01/15 04:56:37;;;;;;;52.75;19.30;;;;;;;-3.42;85.26;99156.94;4953349;29;20105;-30
2024/01/15 04:59:03;;;;;;;48.17;19.10;;;;;;;-3.24;85.26;99159.78;4953086;29;20061;-32
2024/01/15 05:01:32;;;;;;;49.83;20.92;;;;;;;-3.28;85.19;99152.38;4953420;29;20038;-32
2024/01/15 05:03:58;;;;;;;49.22;20.50;;;;;;;-3.38;85.97;99149.72;4953472;29;20023;-33
2024/01/15 05:06:23;;;;;;;47.33;19.50;;;;;;;-3.37;85.75;99146.16;4953797;29;20172;-33
2024/01/15 05:08:48;;;;;;;42.33;18.30;;;;;;;-3.39;84.69;99150.66;4953429;29;20523;-32
2024/01/15 05:11:14;;;;;;;47.65;18.42;;;;;;;-3.44;85.93;99142.44;4953552;29;20027;-32
2024/01/15 05:13:40;;;;;;;46.70;18.45;;;;;;;-3.61;85.91;99121.25;4953128;29;20035;-33
2024/01/15 05:16:06;;;;;;;44.00;18.48;;;;;;;-3.49;85.83;99115.97;4953682;29;20031;-32
2024/01/15 05:18:31;;;;;;;44.05;18.23;;;;;;;-3.34;84.98;99119.88;4953388;29;20046;-32
2024/01/15 05:20:56;;;;;;;44.65;18.67;;;;;;;-3.48;86.04;99117.59;4953301;29;20035;-32
2024/01/15 05:23:22;;;;;;;53.72;19.13;;;;;;;-3.48;86.40;99117.59;4953296;29;20441;-33
2024/01/15 05:25:47;;;;;;;50.88;20.75;;;;;;;-3.47;84.82;99114.88;4953152;29;20127;-33
2024/01/15 05:28:13;;;;;;;56.40;20.10;;;;;;;-3.45;85.26;99115.56;4953176;29;20117;-34
2024/01/15 05:30:39;;;;;;;53.88;21.10;;;;;;;-3.44;85.84;99119.84;4952935;28;20035;-34
2024/01/15 05:33:04;;;;;;;50.83;20.40;;;;;;;-3.53;87.83;99103.22;4953023;29;20034;-32
2024/01/15 05:35:29;;;;;;;55.75;20.58;;;;;;;-3.53;86.60;99113.59;4953051;29;20031;-33
2024/01/15 05:37:55;;;;;;;44.75;19.63;;;;;;;-3.31;88.77;99104.00;4952853;29;20031;-33
2024/01/15 05:40:20;;;;;;;47.38;21.52;;;;;;;-3.10;89.34;99100.50;4953011;29;20028;-33
2024/01/15 05:42:46;;;;;;;51.47;18.83;;;;;;;-3.40;86.33;99110.81;4953037;29;20027;-33
2024/01/15 05:45:11;;;;;;;46.65;21.05;;;;;;;-3.43;85.47;99102.44;4952640;29;20023;-35
2024/01/15 05:47:36;;;;;;;56.72;22.42;;;;;;;-3.70;86.90;99103.78;4952642;29;20030;-32
2024/01/15 05:50:02;;;;;;;61.17;23.38;;;;;;;-3.46;85.39;99108.72;4952923;29;20086;-33
2024/01/15 05:52:28;;;;;;;56.70;22.77;;;;;;;-3.44;86.24;99116.41;4951308;29;20110;-32
2024/01/15 05:54:53;;;;;;;66.53;27.08;;;;;;;-3.41;85.85;99121.34;4951609;29;20490;-34
2024/01/15 05:57:18;;;;;;;68.18;29.92;;;;;;;-3.28;85.56;99134.97;4952200;29;20055;-32
2024/01/15 05:59:44;;;;;;;66.32;27.50;;;;;;;-3.38;87.32;99134.09;4951016;29;20031;-32
2024/01/15 06:02:10;;;;;;;68.45;28.40;;;;;;;-3.32;87.81;99133.56;4951594;29;20082;-35
2024/01/15 06:04:36;;;;;;;60.63;24.20;;;;;;;-3.29;87.29;99138.53;4952107;29;20027;-32
2024/01/15 06:07:01;;;;;;;60.83;28.50;;;;;;;-3.39;87.54;99135.03;4952270;29;20118;-33
2024/01/15 06:09:27;;;;;;;64.95;29.02;;;;;;;-3.03;86.16;99131.09;4952047;29;20042;-33
2024/01/15 06:11:53;;;;;;;61.88;24.77;;;;;;;-3.21;85.90;99117.88;4949888;29;20026;-33
2024/01/15 06:14:18;;;;;;;62.85;26.30;;;;;;;-3.16;84.98;99110.50;4952181;29;20097;-32
2024/01/15 06:16:44;;;;;;;66.05;26.27;;;;;;;-3.08;85.71;99117.66;4952690;29;20031;-33
2024/01/15 06:19:09;;;;;;;73.70;27.90;;;;;;;-3.18;84.50;99115.03;4950966;29;20019;-33
2024/01/15 06:21:34;;;;;;;61.88;26.73;;;;;;;-3.20;85.20;99127.34;4952064;29;20027;-34
2024/01/15 06:24:00;;;;;;;61.15;25.77;;;;;;;-2.97;84.85;99142.75;4952608;29;20023;-35
2024/01/15 06:26:25;;;;;;;59.55;24.98;;;;;;;-3.07;84.91;99147.13;4952015;29;20435;-30
2024/01/15 06:28:50;;;;;;;61.53;25.48;;;;;;;-3.09;85.53;99143.81;4951264;29;20031;-34
2024/01/15 06:31:16;;;;;;;54.58;24.85;;;;;;;-2.98;85.32;99151.53;4951039;29;20106;-33
2024/01/15 06:33:42;;;;;;;63.05;24.17;;;;;;;-2.91;85.21;99146.63;4951879;29;20031;-31
2024/01/15 06:36:08;;;;;;;56.17;24.90;;;;;;;-2.76;84.12;99147.91;4952034;29;20506;-35
2024/01/15 06:38:33;;;;;;;55.95;25.45;;;;;;;-2.70;84.78;99152.59;4952191;29;20111;-35
2024/01/15 06:40:59;;;;;;;61.50;23.48;;;;;;;-2.67;84.38;99146.28;4951976;29;20024;-32
2024/01/15 06:43:25;;;;;;;51.80;22.65;;;;;;;-2.71;85.44;99148.34;4953181;28;20467;-32
2024/01/15 06:45:50;;;;;;;61.28;23.67;;;;;;;-2.52;84.16;99144.94;4955495;29;20023;-33
2024/01/15 06:48:16;;;;;;;67.32;27.20;;;;;;;-2.57;83.92;99141.91;4955644;29;20027;-33
2024/01/15 06:50:45;;;;;;;60.17;24.75;;;;;;;-2.61;84.70;99145.75;4955502;29;20372;-32
2024/01/15 06:53:10;;;;;;;60.35;22.80;;;;;;;-2.55;84.21;99134.81;4955417;29;20455;-32
2024/01/15 06:55:36;;;;;;;65.53;25.95;;;;;;;-2.32;82.80;99135.41;4955353;29;20027;-33
2024/01/15 06:58:01;;;;;;;68.75;26.75;;;;;;;-2.54;82.10;99126.03;4955387;29;20414;-33
2024/01/15 07:00:27;;;;;;;61.60;25.17;;;;;;;-2.47;82.67;99134.97;4955365;29;20540;-35
2024/01/15 07:02:53;;;;;;;63.47;26.67;;;;;;;-2.47;82.71;99128.94;4955513;29;20023;-33
2024/01/15 07:05:18;;;;;;;59.63;25.55;;;;;;;-2.14;81.45;99138.13;4955668;29;20023;-33
2024/01/15 07:07:43;;;;;;;58.80;22.73;;;;;;;-2.07;80.16;99128.81;4955760;29;20412;-35
2024/01/15 07:10:10;;;;;;;68.25;24.63;;;;;;;-2.25;80.57;99114.81;4955235;29;20019;-37
2024/01/15 07:12:35;;;;;;;51.35;22.60;;;;;;;-1.98;80.13;99130.59;4955329;29;20395;-34
2024/01/15 07:15:01;;;;;;;59.55;24.75;;;;;;;-2.09;82.19;99120.31;4954774;29;20082;-35
2024/01/15 07:17:27;;;;;;;61.25;25.30;;;;;;;-1.95;80.48;99126.06;4955416;29;20026;-33
2024/01/15 07:19:52;;;;;;;66.32;25.73;;;;;;;-1.75;80.68;99130.31;4955058;29;20023;-31
2024/01/15 07:22:17;;;;;;;56.20;21.48;;;;;;;-1.79;80.47;99123.69;4954966;29;20035;-33
2024/01/15 07:24:43;;;;;;;64.65;24.83;;;;;;;-1.87;80.62;99118.38;4954966;29;20106;-33
2024/01/15 07:27:09;;;;;;;59.70;25.20;;;;;;;-1.74;80.31;99125.91;4955055;29;20419;-37
2024/01/15 07:29:37;;;;;;;60.03;26.80;;;;;;;-1.83;80.98;99115.34;4954839;29;20019;-34
2024/01/15 07:32:03;;;;;;;70.65;29.40;;;;;;;-1.76;80.26;99128.66;4954703;29;20110;-34
2024/01/15 07:34:28;;;;;;;72.28;30.25;;;;;;;-1.51;80.87;99135.06;4954627;29;20062;-34
2024/01/15 07:36:54;;;;;;;79.32;31.77;;;;;;;-1.17;79.44;99126.72;4954628;29;20165;-33
2024/01/15 07:39:19;;;;;;;66.00;27.58;;;;;;;-0.98;79.18;99125.81;4954738;29;20496;-33
2024/01/15 07:41:44;;;;;;;58.13;24.75;;;;;;;-0.70;77.76;99131.88;4954362;29;20391;-34
2024/01/15 07:44:10;;;;;;;59.42;25.15;;;;;;;-0.53;77.45;99142.50;4954019;29;20027;-33
2024/01/15 07:46:35;;;;;;;55.42;23.80;;;;;;;-0.37;76.45;99137.44;4954360;29;20396;-35
2024/01/15 07:49:01;;;;;;;53.40;22.70;;;;;;;0.18;74.59;99142.53;4954728;29;20105;-34
2024/01/15 07:51:26;;;;;;;44.63;20.92;;;;;;;0.38;73.63;99144.94;4954568;29;20113;-34
2024/01/15 07:53:57;;;;;;;54.90;24.33;;;;;;;0.49;73.31;99141.28;4954189;28;20026;-36
2024/01/15 07:56:23;;;;;;;45.70;23.40;;;;;;;0.53;72.87;99138.22;4954273;29;20030;-33
2024/01/15 07:58:48;;;;;;;56.15;22.45;;;;;;;0.25;73.03;99141.91;4953999;29;20027;-35
2024/01/15 08:01:13;;;;;;;57.15;23.42;;;;;;;0.34;73.24;99147.09;4953767;29;20110;-33
2024/01/15 08:03:39;;;;;;;52.35;22.75;;;;;;;0.54;72.30;99154.75;4954019;29;20420;-33
2024/01/15 08:06:05;;;;;;;59.85;23.38;;;;;;;0.60;72.46;99142.84;4953927;29;20047;-32
2024/01/15 08:08:31;;;;;;;54.88;24.85;;;;;;;0.61;72.17;99162.78;4954119;29;20404;-33
2024/01/15 08:10:56;;;;;;;54.22;24.02;;;;;;;1.00;71.17;99163.19;4954360;29;20019;-33
2024/01/15 08:13:21;;;;;;;53.20;22.92;;;;;;;1.38;70.97;99171.56;4953937;29;20042;-34
2024/01/15 08:15:47;;;;;;;58.05;23.83;;;;;;;1.81;68.83;99176.75;4953869;29;20539;-34
2024/01/15 08:18:12;;;;;;;52.97;22.58;;;;;;;2.05;67.95;99178.63;4954000;29;20035;-33
2024/01/15 08:20:38;;;;;;;53.60;23.02;;;;;;;2.18;68.67;99157.94;4953887;29;20110;-35
2024/01/15 08:23:04;;;;;;;52.17;22.30;;;;;;;2.53;67.92;99164.69;4954409;29;20025;-34
2024/01/15 08:25:30;;;;;;;52.65;23.88;;;;;;;2.60;65.96;99167.44;4954167;29;20027;-32
2024/01/15 08:27:56;;;;;;;48.70;23.08;;;;;;;2.59;64.91;99157.94;4953782;29;20049;-36
2024/01/15 08:30:24;;;;;;;51.60;22.75;;;;;;;2.70;63.51;99165.50;4953853;29;20031;-38
2024/01/15 08:32:50;;;;;;;51.78;24.77;;;;;;;2.61;64.42;99173.53;4953466;29;20051;-35
2024/01/15 08:35:15;;;;;;;56.58;25.33;;;;;;;2.79;63.41;99171.53;4953642;29;20030;-33
2024/01/15 08:37:40;;;;;;;52.40;24.23;;;;;;;3.08;62.86;99170.16;4953794;29;20082;-35
2024/01/15 08:40:06;;;;;;;51.33;23.25;;;;;;;2.83;62.90;99170.22;4953561;29;20535;-33
2024/01/15 08:42:32;;;;;;;48.10;22.98;;;;;;;2.78;63.75;99150.66;4953589;29;20023;-36
2024/01/15 08:44:57;;;;;;;46.75;23.40;;;;;;;2.72;62.82;99149.53;4953922;29;20019;-36
2024/01/15 08:47:22;;;;;;;51.63;23.08;;;;;;;2.48;64.42;99148.59;4953585;29;20061;-35
2024/01/15 08:49:48;;;;;;;50.55;22.02;;;;;;;2.50;64.35;99145.81;4953593;29;20408;-36
2024/01/15 08:52:13;;;;;;;48.72;23.08;;;;;;;2.58;63.52;99127.41;4953268;29;20019;-33
2024/01/15 08:54:39;;;;;;;54.42;24.40;;;;;;;2.96;61.99;99125.00;4953062;29;20110;-35
2024/01/15 08:57:04;;;;;;;49.80;23.58;;;;;;;2.97;61.40;99117.94;4953054;29;20403;-35
2024/01/15 08:59:29;;;;;;;47.72;22.15;;;;;;;2.65;62.76;99109.97;4953228;29;20019;-35
2024/01/15 09:01:57;;;;;;;46.88;23.10;;;;;;;2.81;62.66;99114.38;4953103;29;20051;-37
2024/01/15 09:04:23;;;;;;;49.25;23.10;;;;;;;2.89;62.80;99103.00;4953252;29;20512;-35
2024/01/15 09:06:48;;;;;;;50.78;23.33;;;;;;;3.16;61.21;99103.56;4952513;28;20107;-34
2024/01/15 09:09:16;;;;;;;53.60;23.42;;;;;;;3.22;60.38;99093.19;4952946;29;20122;-34
2024/01/15 09:11:42;;;;;;;51.38;23.95;;;;;;;3.35;59.63;99095.28;4952793;29;20478;-33
2024/01/15 09:14:08;;;;;;;46.22;22.75;;;;;;;3.21;60.96;99096.81;4952897;29;20062;-34
2024/01/15 09:16:33;;;;;;;48.90;23.73;;;;;;;3.19;61.03;99098.78;4953144;29;20479;-34
2024/01/15 09:18:59;;;;;;;49.05;23.63;;;;;;;3.22;61.19;99092.34;4953010;29;20046;-36
2024/01/15 09:21:25;;;;;;;46.88;23.65;;;;;;;3.20;61.33;99094.34;4952822;29;20059;-34
2024/01/15 09:23:50;;;;;;;46.83;23.48;;;;;;;2.95;61.81;99091.81;4952663;29;20030;-37
2024/01/15 09:26:16;;;;;;;50.33;24.05;;;;;;;3.21;61.21;99102.06;4952557;29;20030;-35
2024/01/15 09:28:41;;;;;;;48.58;22.52;;;;;;;3.29;60.92;99094.16;4952602;29;20023;-34
2024/01/15 09:31:07;;;;;;;53.53;22.10;;;;;;;2.94;61.76;99083.13;4952856;29;20039;-35
2024/01/15 09:33:32;;;;;;;49.67;23.75;;;;;;;3.25;61.94;99089.41;4952746;29;20046;-35
2024/01/15 09:36:03;;;;;;;48.08;23.00;;;;;;;2.92;61.77;99076.41;4953030;29;20051;-34
2024/01/15 09:38:29;;;;;;;58.78;25.40;;;;;;;3.05;61.75;99071.41;4952767;29;20038;-35
2024/01/15 09:40:55;;;;;;;50.88;24.40;;;;;;;3.02;61.36;99060.41;4952608;29;20027;-33
2024/01/15 09:43:21;;;;;;;54.55;23.83;;;;;;;3.35;61.33;99081.28;4952511;29;20062;-37
2024/01/15 09:45:46;;;;;;;58.63;25.40;;;;;;;3.36;61.30;99073.22;4952742;29;20039;-34
2024/01/15 09:48:12;;;;;;;51.50;24.75;;;;;;;3.41;61.06;99064.81;4952532;29;20026;-34
2024/01/15 09:50:38;;;;;;;50.60;24.23;;;;;;;3.77;61.04;99053.72;4952703;29;20023;-35
2024/01/15 09:53:05;;;;;;;50.15;24.17;;;;;;;3.52;61.12;99054.72;4952327;29;20372;-37
2024/01/15 09:55:32;;;;;;;45.40;22.77;;;;;;;3.97;60.50;99064.59;4952127;29;20035;-34
2024/01/15 09:58:00;;;;;;;45.30;22.17;;;;;;;3.90;59.88;99038.13;4952264;29;20551;-33
2024/01/15 10:00:26;;;;;;;46.92;22.02;;;;;;;3.71;61.33;99031.53;4952339;29;20031;-36
2024/01/15 10:02:52;;;;;;;46.28;21.02;;;;;;;3.95;60.44;99024.47;4952325;29;20034;-47
2024/01/15 10:05:17;;;;;;;44.70;21.13;;;;;;;3.82;61.48;99019.78;4952279;29;20031;-34
2024/01/15 10:07:45;;;;;;;47.53;21.00;;;;;;;4.05;61.23;99020.56;4952430;29;20476;-35
2024/01/15 10:10:11;;;;;;;48.67;20.63;;;;;;;4.36;60.35;99024.06;4952189;29;20117;-34
2024/01/15 10:12:37;;;;;;;41.90;20.38;;;;;;;4.34;60.20;99020.78;4952247;29;20472;-37
2024/01/15 10:15:04;;;;;;;42.28;20.20;;;;;;;4.38;60.01;99016.78;4952187;29;20027;-36
2024/01/15 10:17:30;;;;;;;43.17;20.05;;;;;;;4.45;60.32;99005.34;4951858;28;20031;-34
2024/01/15 10:19:56;;;;;;;44.42;20.10;;;;;;;4.00;61.38;99007.13;4956052;29;20134;-34
2024/01/15 10:22:23;;;;;;;44.80;19.38;;;;;;;4.01;61.73;99015.84;4956146;29;20041;-32
2024/01/15 10:24:48;;;;;;;40.85;19.65;;;;;;;4.34;60.25;98991.81;4956223;29;20035;-33
2024/01/15 10:27:14;;;;;;;42.17;20.27;;;;;;;4.02;61.06;98980.63;4956135;29;20111;-34
2024/01/15 10:29:41;;;;;;;47.90;21.25;;;;;;;4.20;59.88;98975.00;4956189;29;20415;-35
2024/01/15 10:32:10;;;;;;;43.47;20.65;;;;;;;4.33;59.89;98969.13;4955743;29;20449;-33
2024/01/15 10:34:42;;;;;;;42.35;19.58;;;;;;;4.18;60.80;98964.66;4955759;29;20104;-34
2024/01/15 10:37:08;;;;;;;37.17;18.60;;;;;;;4.47;59.78;98941.94;4955569;29;20027;-34
2024/01/15 10:39:34;;;;;;;41.20;19.17;;;;;;;4.81;58.70;98932.59;4956058;29;20407;-35
2024/01/15 10:42:00;;;;;;;49.05;21.42;;;;;;;4.94;58.75;98924.03;4955714;29;20058;-34
2024/01/15 10:44:25;;;;;;;41.55;20.55;;;;;;;4.84;58.33;98909.31;4955800;29;20575;-35
2024/01/15 10:46:51;;;;;;;43.95;20.60;;;;;;;5.06;57.59;98911.97;4955933;29;20035;-35
2024/01/15 10:49:18;;;;;;;43.58;20.27;;;;;;;5.20;57.78;98910.28;4955284;29;20063;-35
2024/01/15 10:51:44;;;;;;;46.63;20.75;;;;;;;4.82;56.79;98924.50;4955438;29;20510;-35
2024/01/15 10:54:11;;;;;;;43.08;20.75;;;;;;;5.11;56.86;98904.31;4938104;29;20031;-33
2024/01/15 10:56:37;;;;;;;50.80;21.70;;;;;;;5.40;55.79;98926.28;4955456;29;20053;-35
2024/01/15 10:59:04;;;;;;;40.95;19.67;;;;;;;5.40;56.95;98924.47;4955726;29;20059;-38
2024/01/15 11:01:31;;;;;;;49.55;22.38;;;;;;;5.64;57.08;98919.78;4955335;29;20035;-35
2024/01/15 11:03:57;;;;;;;48.15;21.90;;;;;;;6.03;55.84;98911.34;4955329;29;20027;-39
2024/01/15 11:06:24;;;;;;;50.50;22.88;;;;;;;6.18;54.46;98918.34;4955174;29;20038;-39
2024/01/15 11:08:50;;;;;;;48.58;22.77;;;;;;;5.84;55.33;98917.28;4955644;29;20027;-36
2024/01/15 11:11:22;;;;;;;45.10;21.88;;;;;;;6.39;53.71;98898.94;4955232;29;20023;-36